createdAt,value
2023-01-13T00:06:03.895Z,75.15
2023-01-13T00:17:08.721Z,75.08
2023-01-13T00:27:38.551Z,74.86
2023-01-13T00:38:02.926Z,75.12
2023-01-13T00:48:47.978Z,75.10
2023-01-13T00:59:30.538Z,75.18
2023-01-13T01:10:54.579Z,75.05
2023-01-13T01:21:53.040Z,74.96
2023-01-13T01:32:09.828Z,74.93
2023-01-13T01:42:52.863Z,74.95
2023-01-13T01:53:21.639Z,74.85
2023-01-13T02:03:36.627Z,74.70
2023-01-13T02:13:41.217Z,75.03
2023-01-13T02:24:30.019Z,75.04
2023-01-13T02:34:47.129Z,74.71
2023-01-13T02:45:40.157Z,74.50
2023-01-13T02:56:19.612Z,74.24
2023-01-13T03:07:16.515Z,74.54
2023-01-13T03:17:52.436Z,74.60
2023-01-13T03:28:11.534Z,74.91
2023-01-13T03:38:56.842Z,74.75
2023-01-13T03:49:34.204Z,75.27
2023-01-13T03:59:49.357Z,75.16
2023-01-13T04:10:02.109Z,75.19
2023-01-13T04:20:27.010Z,74.52
2023-01-13T04:30:51.808Z,74.73
2023-01-13T04:40:58.312Z,75.03
2023-01-13T04:51:02.429Z,74.77
2023-01-13T05:01:09.501Z,74.33
2023-01-13T05:11:35.093Z,74.54
2023-01-13T05:21:57.764Z,74.38
2023-01-13T05:32:03.013Z,74.20
2023-01-13T05:42:28.615Z,73.81
2023-01-13T05:52:42.050Z,73.80
2023-01-13T06:02:49.535Z,73.79
2023-01-13T06:13:27.653Z,73.85
2023-01-13T06:23:52.325Z,74.11
2023-01-13T06:34:12.065Z,74.34
2023-01-13T06:44:16.277Z,73.94
2023-01-13T06:54:30.465Z,73.43
2023-01-13T07:04:34.494Z,73.08
2023-01-13T07:14:57.257Z,72.64
2023-01-13T07:26:01.986Z,72.55
2023-01-13T07:36:28.916Z,72.23
2023-01-13T07:46:55.149Z,72.44
2023-01-13T07:57:09.356Z,71.59
2023-01-13T08:07:26.783Z,71.37
2023-01-13T08:17:40.517Z,70.88
2023-01-13T08:27:44.669Z,70.09
2023-01-13T08:38:26.369Z,69.65
2023-01-13T08:48:34.038Z,68.95
2023-01-13T08:58:59.901Z,68.53
2023-01-13T09:09:07.613Z,67.34
2023-01-13T09:19:22.156Z,67.15
2023-01-13T09:29:46.463Z,66.83
2023-01-13T09:40:03.076Z,65.86
2023-01-13T09:50:59.168Z,65.76
2023-01-13T10:01:29.112Z,64.98
2023-01-13T10:12:25.032Z,64.82
2023-01-13T10:23:53.450Z,64.77
2023-01-13T10:34:17.563Z,63.84
2023-01-13T10:44:47.831Z,63.89
2023-01-13T10:55:13.858Z,63.68
2023-01-13T11:06:35.109Z,63.67
2023-01-13T11:18:01.836Z,63.86
2023-01-13T11:29:13.796Z,63.45
2023-01-13T11:40:11.453Z,62.84
2023-01-13T11:51:16.860Z,63.07
2023-01-13T12:03:05.981Z,63.30
2023-01-13T12:14:08.910Z,62.78
2023-01-13T12:25:16.115Z,62.33
2023-01-13T12:36:36.648Z,62.69
2023-01-13T12:47:59.207Z,62.77
2023-01-13T12:59:19.846Z,62.23
2023-01-13T13:10:59.526Z,62.04
2023-01-13T13:21:45.603Z,62.26
2023-01-13T13:33:08.753Z,62.35
2023-01-13T13:44:05.173Z,62.50
2023-01-13T13:54:54.752Z,62.19
2023-01-13T14:05:55.659Z,62.68
2023-01-13T14:16:36.521Z,62.95
2023-01-13T14:26:53.577Z,63.22
2023-01-13T14:36:57.587Z,63.22
2023-01-13T14:47:28.318Z,64.68
2023-01-13T14:58:26.404Z,65.41
2023-01-13T15:09:01.495Z,65.79
2023-01-13T15:20:01.168Z,66.32
2023-01-13T15:30:44.881Z,66.65
2023-01-13T15:41:34.601Z,66.89
2023-01-13T15:51:41.333Z,67.36
2023-01-13T16:02:15.321Z,67.98
2023-01-13T16:12:40.089Z,68.42
2023-01-13T16:22:54.277Z,68.57
2023-01-13T16:33:07.651Z,68.62
2023-01-13T16:43:21.782Z,68.34
2023-01-13T16:53:46.476Z,68.58
2023-01-13T17:03:54.590Z,68.87
2023-01-13T17:14:00.077Z,68.85
2023-01-13T17:24:35.273Z,68.47
2023-01-13T17:34:54.662Z,67.96
2023-01-13T17:45:12.769Z,68.27
2023-01-13T17:55:32.990Z,68.35
2023-01-13T18:05:41.775Z,68.70
2023-01-13T18:16:12.081Z,68.86
2023-01-13T18:26:45.344Z,69.13
2023-01-13T18:36:55.661Z,69.08
2023-01-13T18:47:03.921Z,69.11
2023-01-13T18:57:12.093Z,68.83
2023-01-13T19:07:32.715Z,68.52
2023-01-13T19:17:41.959Z,68.08
2023-01-13T19:27:59.753Z,67.62
2023-01-13T19:38:08.564Z,67.51
2023-01-13T19:48:17.124Z,67.53
2023-01-13T19:58:36.542Z,68.01
2023-01-13T20:08:47.514Z,68.13
2023-01-13T20:18:59.611Z,68.44
2023-01-13T20:29:09.620Z,69.51
2023-01-13T20:39:24.970Z,70.41
2023-01-13T20:49:32.151Z,70.51
2023-01-13T20:59:38.206Z,71.42
2023-01-13T21:09:43.241Z,72.81
2023-01-13T21:19:47.396Z,74.06
2023-01-13T21:29:51.400Z,75.04
2023-01-13T21:39:55.912Z,75.48
2023-01-13T21:50:00.196Z,76.23
2023-01-13T22:00:05.780Z,76.23
2023-01-13T22:10:13.401Z,76.74
2023-01-13T22:20:28.632Z,77.07
2023-01-13T22:30:33.568Z,77.26
2023-01-13T22:40:37.592Z,77.47
2023-01-13T22:50:44.208Z,77.29
2023-01-13T23:01:33.309Z,77.81
2023-01-13T23:11:47.866Z,77.98
2023-01-13T23:22:03.920Z,78.30
2023-01-13T23:32:26.269Z,78.95
2023-01-13T23:42:51.945Z,79.04
2023-01-13T23:53:18.680Z,79.22
